Time;durP1;ratioP1;P1;durP2;ratioP2;P2;SDS_P1;SDS_P2;PMS_P1;PMS_P2;Temp;Humidity;BMP_temperature;BMP_pressure;BME280_temperature;BME280_humidity;BME280_pressure;Samples;Min_cycle;Max_cycle;Signal;HPM_P1;HPM_P2
2021/09/11 00:00:15;;;;;;;14.03;8.00;;;20.60;76.40;;;;;;5030649;28;20189;-76
2021/09/11 00:02:46;;;;;;;11.60;7.73;;;20.60;76.50;;;;;;5031128;28;20678;-76
2021/09/11 00:05:13;;;;;;;12.40;9.00;;;20.60;76.50;;;;;;5028343;28;20990;-77
2021/09/11 00:07:39;;;;;;;10.43;7.90;;;20.60;76.50;;;;;;5030666;28;20420;-74
2021/09/11 00:10:07;;;;;;;10.40;7.90;;;20.60;76.70;;;;;;5030511;28;20438;-75
2021/09/11 00:12:35;;;;;;;11.83;8.93;;;20.60;76.80;;;;;;5031034;28;20540;-76
2021/09/11 00:15:05;;;;;;;10.73;7.57;;;20.60;77.00;;;;;;5030864;28;20875;-76
2021/09/11 00:17:30;;;;;;;13.47;8.90;;;20.60;77.30;;;;;;5023487;28;20459;-75
2021/09/11 00:19:56;;;;;;;12.00;8.20;;;20.70;77.40;;;;;;5028503;28;20499;-76
2021/09/11 00:22:22;;;;;;;13.00;8.17;;;20.70;77.80;;;;;;5029178;28;20761;-74
2021/09/11 00:24:47;;;;;;;15.80;9.70;;;20.60;78.00;;;;;;5033821;28;20675;-76
2021/09/11 00:27:14;;;;;;;10.93;8.30;;;20.60;78.10;;;;;;5030006;28;20184;-74
2021/09/11 00:29:39;;;;;;;12.87;8.97;;;20.50;78.70;;;;;;5027345;28;20189;-74
2021/09/11 00:32:06;;;;;;;14.27;9.27;;;20.50;78.90;;;;;;5032936;28;20443;-72
2021/09/11 00:34:31;;;;;;;14.37;9.50;;;20.60;78.70;;;;;;5033811;28;20324;-75
2021/09/11 00:36:57;;;;;;;13.57;9.00;;;20.60;79.00;;;;;;5032453;28;20540;-76
2021/09/11 00:39:23;;;;;;;13.73;8.97;;;20.60;79.00;;;;;;5033232;28;20191;-75
2021/09/11 00:41:50;;;;;;;13.70;9.13;;;20.60;79.00;;;;;;5034419;28;20536;-76
2021/09/11 00:44:16;;;;;;;12.63;8.70;;;20.50;79.50;;;;;;5032345;28;20460;-74
2021/09/11 00:46:42;;;;;;;13.20;9.30;;;20.50;79.50;;;;;;5024124;28;20424;-76
2021/09/11 00:49:08;;;;;;;12.23;8.93;;;20.50;79.50;;;;;;5034122;28;20201;-76
2021/09/11 00:51:34;;;;;;;12.73;9.07;;;20.50;79.30;;;;;;5032500;28;20547;-75
2021/09/11 00:54:02;;;;;;;13.67;9.00;;;20.40;79.60;;;;;;5033154;28;20494;-76
2021/09/11 00:56:29;;;;;;;18.60;9.60;;;20.40;79.70;;;;;;5033316;28;20254;-76
2021/09/11 00:58:55;;;;;;;13.40;9.40;;;20.40;79.90;;;;;;5034436;28;20927;-76
2021/09/11 01:01:21;;;;;;;11.40;8.13;;;20.40;80.20;;;;;;5033130;28;20433;-75
2021/09/11 01:03:47;;;;;;;14.03;9.00;;;20.50;79.90;;;;;;5033628;28;20433;-77
2021/09/11 01:06:13;;;;;;;11.83;8.90;;;20.40;80.20;;;;;;5033688;28;20451;-75
2021/09/11 01:08:43;;;;;;;11.00;8.23;;;20.40;80.20;;;;;;5033717;28;20197;-75
2021/09/11 01:11:09;;;;;;;16.90;9.50;;;20.50;80.00;;;;;;5032060;28;20463;-76
2021/09/11 01:13:36;;;;;;;11.20;7.40;;;20.50;79.90;;;;;;5033355;28;20468;-76
2021/09/11 01:16:02;;;;;;;13.10;9.13;;;20.50;79.70;;;;;;5034030;28;20456;-76
2021/09/11 01:18:28;;;;;;;14.57;9.20;;;20.50;79.70;;;;;;5033394;28;20425;-76
2021/09/11 01:20:54;;;;;;;12.73;8.90;;;20.50;79.60;;;;;;5033718;28;20487;-76
2021/09/11 01:23:21;;;;;;;12.23;8.90;;;20.40;80.50;;;;;;5034454;28;20436;-77
2021/09/11 01:25:47;;;;;;;13.37;8.87;;;20.20;81.40;;;;;;5034055;28;20492;-74
2021/09/11 01:28:14;;;;;;;12.43;8.13;;;20.00;82.40;;;;;;5035276;28;20842;-76
2021/09/11 01:30:40;;;;;;;13.47;8.70;;;19.90;83.00;;;;;;5041013;28;20428;-74
2021/09/11 01:33:06;;;;;;;11.67;8.27;;;20.00;83.00;;;;;;5044862;28;20467;-76
2021/09/11 01:35:31;;;;;;;11.43;8.07;;;20.00;83.00;;;;;;5035895;28;20440;-75
2021/09/11 01:37:57;;;;;;;13.07;8.90;;;19.90;83.10;;;;;;5034787;28;20420;-76
2021/09/11 01:40:23;;;;;;;12.20;8.53;;;19.90;83.10;;;;;;5036210;28;20193;-76
2021/09/11 01:42:49;;;;;;;12.40;8.23;;;19.90;83.60;;;;;;5032409;28;20251;-76
2021/09/11 01:45:20;;;;;;;10.40;7.33;;;19.90;83.60;;;;;;5032774;28;20742;-77
2021/09/11 01:47:48;;;;;;;12.60;8.00;;;19.80;83.80;;;;;;5034495;28;20408;-76
2021/09/11 01:50:16;;;;;;;11.13;7.53;;;19.80;84.40;;;;;;5032532;28;20478;-76
2021/09/11 01:52:42;;;;;;;10.40;7.27;;;19.70;84.70;;;;;;5033456;28;20557;-74
2021/09/11 01:55:11;;;;;;;18.10;7.80;;;19.60;85.00;;;;;;5033477;28;20561;-76
2021/09/11 01:57:40;;;;;;;11.80;8.40;;;19.60;85.20;;;;;;5032736;28;20477;-75
2021/09/11 02:00:17;;;;;;;12.87;8.07;;;19.50;85.30;;;;;;5037670;28;20610;-75
2021/09/11 02:02:44;;;;;;;11.60;7.90;;;19.50;85.30;;;;;;5039971;28;20458;-76
2021/09/11 02:05:11;;;;;;;10.67;7.80;;;19.50;85.50;;;;;;5037241;28;20443;-75
2021/09/11 02:07:37;;;;;;;10.70;8.03;;;19.50;85.50;;;;;;5039362;28;20427;-76
2021/09/11 02:10:04;;;;;;;10.97;8.10;;;19.60;85.30;;;;;;5034763;28;20522;-76
2021/09/11 02:12:30;;;;;;;11.13;7.37;;;19.50;85.30;;;;;;5038056;28;20432;-75
2021/09/11 02:14:55;;;;;;;11.33;7.30;;;19.60;85.30;;;;;;5031801;28;20450;-75
2021/09/11 02:17:21;;;;;;;12.97;7.90;;;19.60;85.30;;;;;;5029076;28;20181;-75
2021/09/11 02:19:47;;;;;;;15.50;8.07;;;19.50;85.50;;;;;;5031041;28;20182;-74
2021/09/11 02:22:13;;;;;;;12.00;7.70;;;19.50;85.60;;;;;;5031579;28;20181;-75
2021/09/11 02:24:40;;;;;;;14.30;8.60;;;19.50;85.60;;;;;;5030676;28;20439;-74
2021/09/11 02:27:07;;;;;;;13.50;7.80;;;19.50;85.60;;;;;;5031447;28;20612;-76
2021/09/11 02:29:34;;;;;;;15.43;8.60;;;19.60;85.60;;;;;;5029290;28;20424;-76
2021/09/11 02:32:01;;;;;;;11.07;8.17;;;19.50;85.50;;;;;;5031423;28;20431;-78
2021/09/11 02:34:31;;;;;;;10.50;7.13;;;19.50;85.60;;;;;;5029697;28;20478;-75
2021/09/11 02:36:57;;;;;;;12.27;7.67;;;19.60;85.60;;;;;;5030595;28;20444;-75
2021/09/11 02:39:23;;;;;;;9.87;7.37;;;19.50;85.60;;;;;;5030378;28;20523;-76
2021/09/11 02:41:49;;;;;;;11.23;7.93;;;19.50;85.70;;;;;;5029777;28;20428;-75
2021/09/11 02:44:15;;;;;;;11.50;7.40;;;19.50;85.60;;;;;;5030916;28;20200;-75
2021/09/11 02:46:40;;;;;;;12.90;7.97;;;19.60;85.60;;;;;;5029638;28;20522;-75
2021/09/11 02:49:06;;;;;;;12.93;8.30;;;19.60;85.50;;;;;;5030560;28;20189;-76
2021/09/11 02:51:32;;;;;;;13.17;8.27;;;19.50;85.60;;;;;;5031153;28;20181;-74
2021/09/11 02:53:59;;;;;;;12.03;7.97;;;19.50;85.90;;;;;;5030078;28;20634;-75
2021/09/11 02:56:25;;;;;;;14.90;8.20;;;19.50;85.90;;;;;;5029518;28;20231;-75
2021/09/11 02:58:51;;;;;;;15.00;7.57;;;19.50;86.00;;;;;;5029357;28;20511;-78
2021/09/11 03:01:16;;;;;;;12.00;7.83;;;19.50;85.90;;;;;;5025490;28;20181;-74
2021/09/11 03:03:42;;;;;;;11.27;7.40;;;19.50;85.90;;;;;;5030366;28;20798;-75
2021/09/11 03:06:08;;;;;;;9.27;6.90;;;19.60;85.90;;;;;;5030374;28;20216;-74
2021/09/11 03:08:34;;;;;;;11.03;7.83;;;19.60;85.70;;;;;;5030187;28;20219;-76
2021/09/11 03:11:00;;;;;;;12.10;7.60;;;19.60;85.70;;;;;;5030126;28;20431;-77
2021/09/11 03:13:26;;;;;;;13.70;7.73;;;19.60;85.90;;;;;;5029987;28;20207;-76
2021/09/11 03:15:52;;;;;;;15.53;8.77;;;19.60;85.90;;;;;;5030159;28;20432;-76
2021/09/11 03:18:18;;;;;;;14.30;9.00;;;19.60;86.20;;;;;;5029797;28;20208;-76
2021/09/11 03:20:50;;;;;;;12.20;8.20;;;19.70;85.90;;;;;;5029120;28;20185;-74
2021/09/11 03:23:16;;;;;;;10.87;7.70;;;19.70;86.00;;;;;;5028650;28;20669;-74
2021/09/11 03:25:42;;;;;;;11.63;7.73;;;19.80;85.70;;;;;;5030058;28;20443;-76
2021/09/11 03:28:08;;;;;;;11.83;7.60;;;19.80;85.50;;;;;;5030119;28;20196;-76
2021/09/11 03:30:34;;;;;;;10.87;8.10;;;19.80;85.50;;;;;;5029483;28;20430;-76
2021/09/11 03:33:00;;;;;;;13.90;8.10;;;19.80;85.20;;;;;;5031187;28;20476;-79
2021/09/11 03:35:27;;;;;;;14.30;8.80;;;19.80;85.50;;;;;;5030428;28;20447;-78
2021/09/11 03:37:53;;;;;;;11.30;8.17;;;19.70;85.70;;;;;;5031130;28;20423;-76
2021/09/11 03:40:19;;;;;;;12.20;8.40;;;19.80;85.00;;;;;;5030008;28;20788;-75
2021/09/11 03:42:45;;;;;;;11.00;7.87;;;19.80;85.20;;;;;;5029351;28;20458;-78
2021/09/11 03:45:11;;;;;;;16.00;9.20;;;19.70;85.70;;;;;;5028323;28;20480;-76
2021/09/11 03:47:38;;;;;;;12.13;8.00;;;19.70;85.70;;;;;;5030200;28;20424;-77
2021/09/11 03:50:05;;;;;;;12.00;8.40;;;19.70;86.00;;;;;;5029806;28;20942;-74
2021/09/11 03:52:31;;;;;;;12.90;8.60;;;19.80;85.70;;;;;;5029990;28;20408;-76
2021/09/11 03:54:57;;;;;;;12.57;7.50;;;19.80;85.70;;;;;;5030076;28;20467;-77
2021/09/11 03:57:23;;;;;;;12.70;8.20;;;19.80;85.70;;;;;;5029925;28;20223;-77
2021/09/11 03:59:48;;;;;;;17.43;8.00;;;19.80;85.50;;;;;;5030272;28;20269;-77
2021/09/11 04:02:14;;;;;;;12.03;8.03;;;19.70;85.70;;;;;;5031345;28;20672;-76
2021/09/11 04:04:40;;;;;;;12.23;8.47;;;19.80;85.70;;;;;;5032298;28;20675;-75
2021/09/11 04:07:06;;;;;;;11.47;7.63;;;19.80;85.90;;;;;;5033156;28;20290;-77
2021/09/11 04:09:31;;;;;;;11.63;8.10;;;19.80;85.70;;;;;;5034789;28;20182;-76
2021/09/11 04:11:57;;;;;;;10.03;7.13;;;19.80;85.70;;;;;;5046243;28;20193;-76
2021/09/11 04:14:23;;;;;;;10.70;8.03;;;19.90;85.20;;;;;;5037566;28;20220;-75
2021/09/11 04:16:49;;;;;;;11.10;7.33;;;19.80;85.20;;;;;;5034132;28;20198;-75
2021/09/11 04:19:15;;;;;;;11.47;8.47;;;19.90;85.20;;;;;;5033671;28;20779;-76
2021/09/11 04:21:40;;;;;;;10.57;7.07;;;19.90;85.00;;;;;;5034792;28;20560;-75
2021/09/11 04:24:07;;;;;;;10.13;7.27;;;19.90;85.20;;;;;;5033194;28;20194;-74
2021/09/11 04:26:34;;;;;;;11.77;7.37;;;19.90;84.90;;;;;;5036498;28;20562;-76
2021/09/11 04:29:00;;;;;;;11.20;7.50;;;19.80;85.00;;;;;;5028367;28;20512;-78
2021/09/11 04:31:25;;;;;;;12.43;7.50;;;19.80;85.50;;;;;;5036902;28;20507;-76
2021/09/11 04:33:51;;;;;;;12.80;7.40;;;19.80;85.50;;;;;;5031552;28;20496;-76
2021/09/11 04:36:17;;;;;;;9.03;6.30;;;19.80;84.90;;;;;;5029692;28;20270;-75
2021/09/11 04:38:43;;;;;;;10.10;7.10;;;19.70;85.30;;;;;;5029318;28;20196;-76
2021/09/11 04:41:08;;;;;;;8.43;6.40;;;19.60;85.70;;;;;;5029909;28;20613;-76
2021/09/11 04:43:34;;;;;;;9.80;6.63;;;19.50;86.50;;;;;;5026174;28;20189;-75
2021/09/11 04:46:00;;;;;;;10.77;6.87;;;19.40;86.90;;;;;;5030293;28;20251;-76
2021/09/11 04:48:27;;;;;;;10.80;6.50;;;19.40;87.30;;;;;;5029872;28;20282;-77
2021/09/11 04:50:53;;;;;;;13.87;6.63;;;19.30;87.60;;;;;;5028702;28;20432;-76
2021/09/11 04:53:18;;;;;;;10.07;6.37;;;19.30;87.80;;;;;;5031385;28;20476;-75
2021/09/11 04:55:44;;;;;;;12.57;6.43;;;19.30;88.00;;;;;;5030067;28;20444;-75
2021/09/11 04:58:10;;;;;;;6.80;4.63;;;19.30;88.60;;;;;;5030679;28;20196;-76
2021/09/11 05:00:36;;;;;;;9.80;6.27;;;19.20;89.00;;;;;;5028846;28;20650;-76
2021/09/11 05:03:01;;;;;;;9.37;5.80;;;19.20;89.30;;;;;;5029569;28;20947;-77
2021/09/11 05:05:27;;;;;;;9.00;5.33;;;19.10;89.60;;;;;;5030821;28;20212;-77
2021/09/11 05:07:54;;;;;;;8.80;5.30;;;19.10;89.60;;;;;;5030905;28;20197;-75
2021/09/11 05:10:20;;;;;;;10.20;6.17;;;19.10;89.70;;;;;;5034299;28;20190;-78
2021/09/11 05:12:46;;;;;;;7.20;4.80;;;19.00;89.90;;;;;;5033255;28;20533;-75
2021/09/11 05:15:12;;;;;;;12.20;6.23;;;19.00;90.10;;;;;;5034838;28;20286;-74
2021/09/11 05:17:38;;;;;;;7.40;5.17;;;19.00;90.10;;;;;;5034208;28;20280;-77
2021/09/11 05:20:05;;;;;;;8.97;5.70;;;19.10;90.10;;;;;;5033749;28;20858;-73
2021/09/11 05:22:30;;;;;;;7.57;5.20;;;19.10;90.20;;;;;;5037367;28;20452;-73
2021/09/11 05:24:56;;;;;;;10.87;5.30;;;19.00;90.20;;;;;;5034326;28;20451;-74
2021/09/11 05:27:22;;;;;;;8.73;5.73;;;19.00;90.40;;;;;;5036322;28;20191;-73
2021/09/11 05:29:47;;;;;;;8.00;5.00;;;19.00;90.60;;;;;;5035883;28;20183;-72
2021/09/11 05:32:13;;;;;;;8.57;5.30;;;18.90;90.60;;;;;;5032215;28;20185;-75
2021/09/11 05:34:39;;;;;;;7.70;5.50;;;18.90;90.60;;;;;;5036670;28;20696;-75
2021/09/11 05:37:05;;;;;;;9.27;5.30;;;19.00;90.70;;;;;;5038268;28;20450;-75
2021/09/11 05:39:31;;;;;;;10.40;5.10;;;19.00;90.70;;;;;;5040314;28;20200;-77
2021/09/11 05:41:56;;;;;;;6.23;4.73;;;19.00;90.70;;;;;;5037716;28;20277;-75
2021/09/11 05:44:22;;;;;;;10.03;5.70;;;19.00;90.50;;;;;;5036982;28;20334;-76
2021/09/11 05:46:48;;;;;;;8.83;5.70;;;19.00;90.50;;;;;;5038072;28;20192;-77
2021/09/11 05:49:13;;;;;;;9.37;5.97;;;19.00;91.10;;;;;;5034767;28;20234;-75
2021/09/11 05:51:39;;;;;;;9.23;5.07;;;19.00;91.20;;;;;;5033597;28;20195;-75
2021/09/11 05:54:05;;;;;;;9.73;5.83;;;18.90;91.50;;;;;;5032563;28;21183;-76
2021/09/11 05:56:31;;;;;;;8.13;5.80;;;18.90;91.90;;;;;;5033016;28;20274;-76
2021/09/11 05:58:56;;;;;;;11.13;5.80;;;18.80;92.00;;;;;;5033158;28;20185;-75
2021/09/11 06:01:22;;;;;;;8.30;5.53;;;18.80;91.90;;;;;;5032895;28;20183;-76
2021/09/11 06:03:48;;;;;;;8.73;5.63;;;18.80;92.10;;;;;;5032732;28;20222;-77
2021/09/11 06:06:13;;;;;;;8.90;5.40;;;18.80;92.00;;;;;;5031292;28;20217;-77
2021/09/11 06:08:39;;;;;;;7.73;5.47;;;18.80;92.10;;;;;;5034476;28;20196;-76
2021/09/11 06:11:05;;;;;;;7.80;5.67;;;18.80;92.40;;;;;;5034397;28;20203;-76
2021/09/11 06:13:31;;;;;;;6.40;4.70;;;18.90;92.60;;;;;;5031346;28;20214;-76
2021/09/11 06:15:56;;;;;;;9.10;6.13;;;19.00;92.80;;;;;;5031260;28;20215;-75
2021/09/11 06:18:22;;;;;;;10.77;6.17;;;19.10;92.10;;;;;;5032370;28;20185;-76
2021/09/11 06:20:48;;;;;;;8.17;5.30;;;19.10;91.70;;;;;;5030498;28;20335;-74
2021/09/11 06:23:13;;;;;;;7.10;5.13;;;19.10;91.90;;;;;;5032118;28;20189;-76
2021/09/11 06:25:39;;;;;;;7.23;5.37;;;19.10;92.00;;;;;;5031357;28;20321;-75
2021/09/11 06:28:05;;;;;;;8.40;5.10;;;19.20;92.10;;;;;;5030928;28;20185;-76
2021/09/11 06:30:30;;;;;;;6.73;5.10;;;19.30;91.80;;;;;;5029634;28;20185;-74
2021/09/11 06:32:56;;;;;;;8.63;5.50;;;19.40;91.90;;;;;;5032096;28;20266;-76
2021/09/11 06:35:22;;;;;;;11.23;5.60;;;19.40;91.90;;;;;;5030691;28;20236;-77
2021/09/11 06:37:48;;;;;;;7.53;4.87;;;19.50;91.30;;;;;;5030331;28;20193;-76
2021/09/11 06:40:13;;;;;;;8.20;5.40;;;19.50;91.10;;;;;;5030795;28;20177;-75
2021/09/11 06:42:39;;;;;;;7.67;5.10;;;19.70;91.00;;;;;;5025857;28;20204;-73
2021/09/11 06:45:06;;;;;;;6.53;4.47;;;19.70;90.30;;;;;;5031587;28;20203;-77
2021/09/11 06:47:32;;;;;;;7.60;4.87;;;19.80;89.70;;;;;;5032794;28;20552;-75
2021/09/11 06:49:57;;;;;;;7.37;4.67;;;19.90;89.00;;;;;;5033109;28;20495;-76
2021/09/11 06:52:23;;;;;;;6.60;4.33;;;19.80;89.50;;;;;;5033209;28;20243;-75
2021/09/11 06:54:49;;;;;;;7.10;4.57;;;19.90;88.10;;;;;;5034150;28;20589;-77
2021/09/11 06:57:14;;;;;;;9.73;4.80;;;19.80;88.40;;;;;;5039320;28;20188;-74
2021/09/11 06:59:40;;;;;;;6.40;3.80;;;19.80;88.70;;;;;;5037651;28;20184;-76
2021/09/11 07:02:06;;;;;;;5.10;4.13;;;19.90;88.90;;;;;;5031931;28;20261;-75
2021/09/11 07:04:32;;;;;;;5.73;4.60;;;20.00;88.40;;;;;;5042144;28;20205;-75
2021/09/11 07:06:58;;;;;;;4.70;3.87;;;20.10;88.10;;;;;;5043384;28;20434;-75
2021/09/11 07:09:23;;;;;;;6.20;4.17;;;20.20;87.80;;;;;;5041979;28;20192;-74
2021/09/11 07:11:49;;;;;;;7.33;4.47;;;20.30;87.10;;;;;;5043280;28;20200;-73
2021/09/11 07:14:16;;;;;;;5.57;4.00;;;20.30;86.90;;;;;;5043421;28;20241;-74
2021/09/11 07:16:43;;;;;;;5.67;3.67;;;20.40;86.90;;;;;;5025803;28;20255;-73
2021/09/11 07:19:09;;;;;;;7.13;4.23;;;20.40;85.70;;;;;;5031669;28;20444;-74
2021/09/11 07:21:35;;;;;;;7.20;4.23;;;20.40;86.20;;;;;;5031814;28;20452;-75
2021/09/11 07:24:01;;;;;;;6.20;3.53;;;20.40;86.30;;;;;;5032331;28;20950;-76
2021/09/11 07:26:27;;;;;;;5.03;3.40;;;20.60;85.50;;;;;;5031266;28;20185;-76
2021/09/11 07:28:52;;;;;;;6.07;4.20;;;20.50;85.60;;;;;;5028546;28;20229;-77
2021/09/11 07:31:18;;;;;;;8.53;4.93;;;20.50;86.50;;;;;;5062031;28;20659;-75
2021/09/11 07:33:44;;;;;;;5.90;4.27;;;20.70;86.50;;;;;;5030818;28;20461;-76
2021/09/11 07:36:10;;;;;;;4.17;3.27;;;20.90;85.90;;;;;;5031384;28;20516;-77
2021/09/11 07:38:38;;;;;;;5.07;3.43;;;21.10;84.30;;;;;;5031026;28;20187;-75
2021/09/11 07:41:04;;;;;;;5.60;3.50;;;21.10;83.60;;;;;;5031228;28;20201;-76
2021/09/11 07:43:31;;;;;;;6.23;3.47;;;21.20;83.30;;;;;;5028120;28;20425;-75
2021/09/11 07:45:57;;;;;;;6.20;4.10;;;21.00;84.00;;;;;;5029866;28;20448;-76
2021/09/11 07:48:23;;;;;;;5.40;4.00;;;21.10;83.80;;;;;;5030658;28;20537;-76
2021/09/11 07:50:49;;;;;;;5.80;3.43;;;21.10;84.00;;;;;;5032330;28;20423;-74
2021/09/11 07:53:15;;;;;;;4.90;3.67;;;21.20;83.60;;;;;;5030788;28;20468;-75
2021/09/11 07:55:42;;;;;;;5.30;3.53;;;21.30;83.00;;;;;;5035055;28;20451;-76
2021/09/11 07:58:08;;;;;;;5.23;3.70;;;21.30;82.70;;;;;;5027852;28;20926;-78
2021/09/11 08:00:34;;;;;;;6.50;4.07;;;21.30;83.10;;;;;;5032164;28;20430;-76
2021/09/11 08:02:59;;;;;;;5.50;3.57;;;21.40;83.40;;;;;;5028757;28;20881;-74
2021/09/11 08:05:26;;;;;;;8.47;3.70;;;21.50;83.00;;;;;;5043445;28;20450;-74
2021/09/11 08:07:51;;;;;;;5.40;4.10;;;21.70;82.10;;;;;;5045827;28;20281;-75
2021/09/11 08:10:19;;;;;;;5.20;3.33;;;21.70;81.40;;;;;;5045054;28;20426;-76
2021/09/11 08:12:46;;;;;;;4.60;3.20;;;21.70;81.20;;;;;;5044540;28;20220;-75
2021/09/11 08:15:12;;;;;;;5.80;3.60;;;21.70;81.70;;;;;;5042390;28;20447;-76
2021/09/11 08:17:38;;;;;;;6.10;3.87;;;21.50;82.10;;;;;;5040199;28;20421;-77
2021/09/11 08:20:05;;;;;;;5.83;3.80;;;21.30;82.80;;;;;;5041050;28;20447;-73
2021/09/11 08:22:31;;;;;;;5.53;3.80;;;21.30;83.30;;;;;;5044206;28;20265;-76
2021/09/11 08:24:56;;;;;;;5.67;3.53;;;21.30;83.00;;;;;;5039626;28;20454;-74
2021/09/11 08:27:23;;;;;;;5.10;3.93;;;21.30;83.40;;;;;;5039559;28;20200;-73
2021/09/11 08:29:50;;;;;;;4.10;3.60;;;21.50;82.50;;;;;;5047824;28;20214;-74
2021/09/11 08:32:15;;;;;;;7.00;3.63;;;21.40;82.50;;;;;;5047392;28;20432;-74
2021/09/11 08:34:41;;;;;;;4.13;3.50;;;21.30;83.10;;;;;;5043862;28;20518;-75
2021/09/11 08:37:07;;;;;;;27.43;14.30;;;21.20;83.10;;;;;;5034160;28;20256;-80
2021/09/11 08:39:33;;;;;;;5.00;4.03;;;21.30;83.00;;;;;;5029750;28;20190;-77
2021/09/11 08:42:00;;;;;;;5.97;3.80;;;21.50;82.50;;;;;;5023719;28;20241;-78
2021/09/11 08:44:27;;;;;;;5.50;3.50;;;21.80;81.40;;;;;;5032998;28;20215;-77
2021/09/11 08:46:53;;;;;;;7.57;4.30;;;21.90;80.60;;;;;;5032146;28;20464;-78
2021/09/11 08:49:20;;;;;;;5.60;4.20;;;22.00;80.30;;;;;;5026190;28;20449;-75
2021/09/11 08:51:46;;;;;;;6.37;4.10;;;21.80;80.90;;;;;;5033214;28;20512;-78
2021/09/11 08:54:19;;;;;;;6.40;4.20;;;21.50;81.80;;;;;;5032769;28;20474;-75
2021/09/11 08:56:46;;;;;;;4.67;3.53;;;21.50;81.90;;;;;;5033658;28;20434;-76
2021/09/11 08:59:17;;;;;;;4.40;3.60;;;21.70;81.70;;;;;;5037303;28;20437;-80
2021/09/11 09:01:44;;;;;;;6.87;4.03;;;21.80;81.10;;;;;;5038019;28;20438;-78
2021/09/11 09:04:10;;;;;;;5.07;3.80;;;21.90;80.30;;;;;;5035946;28;20483;-78
2021/09/11 09:06:37;;;;;;;7.63;4.30;;;21.90;79.60;;;;;;5032685;28;20855;-77
2021/09/11 09:09:14;;;;;;;6.33;3.77;;;21.90;80.00;;;;;;5033957;28;20196;-80
2021/09/11 09:11:44;;;;;;;5.77;3.87;;;22.00;79.90;;;;;;5026795;28;20427;-76
2021/09/11 09:14:15;;;;;;;9.70;4.10;;;22.30;78.30;;;;;;5035627;28;20477;-77
2021/09/11 09:16:52;;;;;;;5.77;3.63;;;22.40;77.70;;;;;;5036098;28;20448;-77
2021/09/11 09:19:23;;;;;;;5.80;4.10;;;22.60;77.40;;;;;;5031965;28;20431;-79
2021/09/11 09:21:51;;;;;;;5.07;3.43;;;22.90;76.70;;;;;;5024452;28;20528;-79
2021/09/11 09:24:30;;;;;;;5.33;3.83;;;23.20;74.20;;;;;;5031360;28;20439;-77
2021/09/11 09:27:03;;;;;;;15.93;8.20;;;23.10;73.30;;;;;;5031221;28;20462;-79
2021/09/11 09:29:29;;;;;;;4.30;3.17;;;23.30;72.60;;;;;;5030748;28;20433;-79
2021/09/11 09:31:56;;;;;;;13.90;7.73;;;23.50;72.70;;;;;;5034253;28;20470;-78
2021/09/11 09:34:36;;;;;;;7.43;5.20;;;23.60;73.30;;;;;;5023934;28;20473;-79
2021/09/11 09:37:05;;;;;;;11.43;7.30;;;23.50;73.70;;;;;;5033353;28;20449;-79
2021/09/11 09:39:45;;;;;;;8.23;5.73;;;23.20;74.60;;;;;;5034747;28;20880;-80
2021/09/11 09:42:13;;;;;;;9.87;5.10;;;23.10;76.10;;;;;;5039330;28;20426;-78
2021/09/11 09:44:59;;;;;;;7.50;4.30;;;23.20;75.40;;;;;;5046061;28;20476;-77
2021/09/11 09:47:25;;;;;;;11.23;5.07;;;23.30;74.60;;;;;;5044481;28;20478;-80
2021/09/11 09:50:09;;;;;;;171.10;103.53;;;23.50;74.20;;;;;;5034039;28;20429;-81
2021/09/11 09:52:36;;;;;;;70.27;39.73;;;23.60;74.20;;;;;;5026362;28;20263;-79
2021/09/11 09:55:02;;;;;;;9.00;5.77;;;23.60;73.00;;;;;;5029059;28;20486;-78
2021/09/11 09:57:28;;;;;;;8.53;5.47;;;23.60;73.30;;;;;;5034923;28;20413;-80
2021/09/11 09:59:54;;;;;;;6.57;4.83;;;23.50;73.90;;;;;;5031898;28;20767;-79
2021/09/11 10:02:20;;;;;;;5.53;4.40;;;23.60;74.30;;;;;;5025432;28;20508;-82
2021/09/11 10:04:55;;;;;;;10.70;5.20;;;23.60;74.50;;;;;;5029289;28;20803;-77
2021/09/11 10:07:22;;;;;;;10.90;5.47;;;23.60;74.60;;;;;;5032454;28;20490;-80
2021/09/11 10:09:50;;;;;;;8.07;5.20;;;23.60;74.00;;;;;;5032338;28;20429;-78
2021/09/11 10:12:35;;;;;;;7.43;4.90;;;23.70;74.00;;;;;;5032086;28;20429;-79
2021/09/11 10:15:26;;;;;;;6.80;4.63;;;23.60;73.90;;;;;;5026743;28;20895;-81
2021/09/11 10:17:54;;;;;;;6.23;4.03;;;23.40;74.20;;;;;;5029725;28;20421;-78
2021/09/11 10:20:21;;;;;;;8.50;5.10;;;23.50;75.40;;;;;;5033289;28;20489;-76
2021/09/11 10:23:05;;;;;;;6.77;4.53;;;23.60;74.80;;;;;;5031873;28;20508;-77
2021/09/11 10:25:47;;;;;;;7.43;4.70;;;23.70;74.30;;;;;;5035424;28;20489;-79
2021/09/11 10:28:21;;;;;;;7.30;4.50;;;23.90;74.00;;;;;;5030048;28;20803;-77
2021/09/11 10:31:04;;;;;;;9.47;5.47;;;24.00;73.00;;;;;;5037079;28;20425;-77
2021/09/11 10:33:45;;;;;;;7.80;4.13;;;24.00;71.80;;;;;;5039483;28;20469;-78
2021/09/11 10:36:31;;;;;;;7.27;4.87;;;24.20;71.00;;;;;;5030919;28;20465;-78
2021/09/11 10:39:08;;;;;;;4.97;3.40;;;24.40;69.70;;;;;;5027623;28;20431;-78
2021/09/11 10:41:33;;;;;;;4.23;3.00;;;24.30;68.60;;;;;;5041050;28;20430;-80
2021/09/11 10:44:06;;;;;;;5.13;3.23;;;24.50;68.50;;;;;;5025439;28;20426;-79
2021/09/11 10:46:53;;;;;;;5.17;3.70;;;25.00;67.00;;;;;;5025514;28;20198;-79
2021/09/11 10:49:36;;;;;;;5.10;3.40;;;25.30;65.40;;;;;;5025322;28;20549;-79
2021/09/11 10:52:07;;;;;;;4.07;3.20;;;25.00;65.70;;;;;;5025299;28;20441;-79
2021/09/11 10:54:43;;;;;;;5.10;3.73;;;24.90;66.90;;;;;;5034125;28;20506;-79
2021/09/11 10:57:12;;;;;;;4.77;3.40;;;24.70;67.70;;;;;;5032072;28;20448;-78
2021/09/11 10:59:45;;;;;;;5.07;3.67;;;24.60;68.50;;;;;;5035510;28;20468;-78
2021/09/11 11:02:30;;;;;;;10.40;4.60;;;24.80;67.90;;;;;;5032955;28;20449;-79
2021/09/11 11:05:04;;;;;;;7.50;5.20;;;24.70;68.90;;;;;;5034589;28;20571;-78
2021/09/11 11:07:31;;;;;;;8.03;4.43;;;24.40;70.20;;;;;;5034428;28;20462;-77
2021/09/11 11:10:07;;;;;;;6.50;4.17;;;24.30;70.80;;;;;;5035736;28;20435;-78
2021/09/11 11:12:41;;;;;;;6.10;4.13;;;24.10;71.40;;;;;;5035750;28;20565;-80
2021/09/11 11:15:14;;;;;;;6.93;4.40;;;23.90;72.00;;;;;;5031601;28;20455;-76
2021/09/11 11:17:46;;;;;;;9.63;4.63;;;23.40;73.50;;;;;;5035989;28;20436;-80
2021/09/11 11:20:12;;;;;;;7.43;4.57;;;23.30;74.00;;;;;;5035690;28;20440;-78
2021/09/11 11:22:41;;;;;;;5.73;4.30;;;23.10;74.50;;;;;;5031853;28;20420;-79
2021/09/11 11:25:13;;;;;;;7.67;4.67;;;22.90;74.80;;;;;;5031744;28;20814;-77
2021/09/11 11:27:40;;;;;;;10.57;5.80;;;22.60;80.60;;;;;;5033574;28;20469;-79
2021/09/11 11:30:08;;;;;;;14.13;7.27;;;22.00;86.80;;;;;;5039125;28;20521;-80
2021/09/11 11:32:37;;;;;;;10.87;6.13;;;21.60;90.10;;;;;;5037502;28;20418;-77
2021/09/11 11:35:05;;;;;;;8.43;5.37;;;21.10;91.50;;;;;;5041229;28;20801;-78
2021/09/11 11:37:34;;;;;;;10.37;5.33;;;20.60;92.20;;;;;;5035043;28;20819;-79
2021/09/11 11:40:03;;;;;;;9.13;4.27;;;20.10;93.00;;;;;;5034023;28;20820;-81
2021/09/11 11:42:33;;;;;;;6.07;3.60;;;19.80;93.50;;;;;;5033189;28;20428;-81
2021/09/11 11:45:00;;;;;;;9.37;3.90;;;19.40;94.50;;;;;;5033299;28;20451;-78
2021/09/11 11:47:28;;;;;;;6.80;4.03;;;19.20;95.00;;;;;;5036461;28;20437;-79
2021/09/11 11:49:54;;;;;;;7.17;3.70;;;19.20;96.00;;;;;;5033845;28;20434;-79
2021/09/11 11:52:22;;;;;;;7.93;4.67;;;19.10;96.30;;;;;;5032401;28;20423;-82
2021/09/11 11:54:48;;;;;;;3.70;2.60;;;19.20;96.40;;;;;;5032595;28;20221;-81
2021/09/11 11:57:22;;;;;;;7.40;3.47;;;19.30;96.10;;;;;;5032559;28;20491;-79
2021/09/11 12:00:09;;;;;;;9.97;3.87;;;19.50;95.90;;;;;;5034256;28;20911;-79
2021/09/11 12:02:40;;;;;;;6.30;3.70;;;19.50;95.50;;;;;;5033231;28;20426;-80
2021/09/11 12:05:21;;;;;;;15.33;4.20;;;19.80;95.30;;;;;;5033912;28;21100;-77
2021/09/11 12:07:53;;;;;;;7.93;3.20;;;20.10;95.10;;;;;;5035254;28;20434;-77
2021/09/11 12:10:19;;;;;;;3.70;2.53;;;20.50;94.30;;;;;;5035928;28;20447;-77
2021/09/11 12:12:46;;;;;;;5.30;3.20;;;20.80;92.30;;;;;;5034940;28;20849;-80
2021/09/11 12:15:15;;;;;;;4.07;2.60;;;21.20;91.50;;;;;;5034404;28;20957;-82
2021/09/11 12:18:11;;;;;;;2.00;1.80;;;21.40;91.40;;;;;;5036038;28;20414;-80
2021/09/11 12:20:46;;;;;;;2.63;2.17;;;21.80;89.20;;;;;;5032925;28;21250;-79
2021/09/11 12:23:16;;;;;;;3.97;2.43;;;22.10;87.60;;;;;;5038420;28;20487;-81
2021/09/11 12:25:59;;;;;;;2.63;1.73;;;22.40;86.80;;;;;;5043087;28;20435;-79
2021/09/11 12:28:46;;;;;;;2.73;2.27;;;22.50;84.70;;;;;;5049352;28;20403;-77
2021/09/11 12:31:21;;;;;;;3.60;2.27;;;22.60;83.40;;;;;;5040756;28;20799;-78
2021/09/11 12:33:50;;;;;;;4.00;2.57;;;22.80;84.30;;;;;;5039684;28;20545;-76
2021/09/11 12:36:32;;;;;;;3.67;2.57;;;23.00;84.30;;;;;;5038148;28;21024;-77
2021/09/11 12:39:05;;;;;;;5.43;2.40;;;23.20;82.10;;;;;;5038525;28;20435;-77
2021/09/11 12:41:31;;;;;;;4.83;2.40;;;23.40;80.90;;;;;;5039613;28;20437;-79
2021/09/11 12:43:57;;;;;;;4.03;2.60;;;23.30;79.60;;;;;;5044747;28;20440;-78
2021/09/11 12:46:38;;;;;;;3.80;2.57;;;23.20;80.80;;;;;;5044026;28;20247;-78